sensor_id;sensor_type;location;lat;lon;timestamp;pressure;altitude;pressure_sealevel;temperature;humidity
498;BME280;39559;48.630;9.162;2023-07-31T00:02:04;97561.75;;;11.33;100.00
498;BME280;39559;48.630;9.162;2023-07-31T00:04:29;97548.13;;;11.28;100.00
498;BME280;39559;48.630;9.162;2023-07-31T00:06:55;97552.81;;;11.20;100.00
498;BME280;39559;48.630;9.162;2023-07-31T00:09:20;97552.69;;;11.23;100.00
498;BME280;39559;48.630;9.162;2023-07-31T00:11:46;97553.25;;;11.29;100.00
498;BME280;39559;48.630;9.162;2023-07-31T00:16:18;97561.38;;;11.22;100.00
498;BME280;39559;48.630;9.162;2023-07-31T00:18:44;97548.50;;;11.39;100.00
498;BME280;39559;48.630;9.162;2023-07-31T00:21:09;97563.66;;;11.29;100.00
498;BME280;39559;48.630;9.162;2023-07-31T00:23:34;97559.31;;;11.09;100.00
498;BME280;39559;48.630;9.162;2023-07-31T00:26:00;97562.19;;;11.03;100.00
498;BME280;39559;48.630;9.162;2023-07-31T00:28:26;97562.97;;;11.05;100.00
498;BME280;39559;48.630;9.162;2023-07-31T00:30:52;97566.69;;;11.00;100.00
498;BME280;39559;48.630;9.162;2023-07-31T00:33:18;97564.63;;;11.08;100.00
498;BME280;39559;48.630;9.162;2023-07-31T00:35:43;97566.59;;;11.22;100.00
498;BME280;39559;48.630;9.162;2023-07-31T00:40:15;97565.78;;;11.01;100.00
498;BME280;39559;48.630;9.162;2023-07-31T00:42:40;97568.44;;;10.99;100.00
498;BME280;39559;48.630;9.162;2023-07-31T00:45:06;97564.97;;;10.99;100.00
498;BME280;39559;48.630;9.162;2023-07-31T00:47:32;97565.31;;;10.91;100.00
498;BME280;39559;48.630;9.162;2023-07-31T00:49:57;97553.44;;;10.85;100.00
498;BME280;39559;48.630;9.162;2023-07-31T00:52:23;97553.44;;;10.85;100.00
498;BME280;39559;48.630;9.162;2023-07-31T00:54:49;97548.94;;;10.89;100.00
498;BME280;39559;48.630;9.162;2023-07-31T00:57:15;97541.22;;;10.87;100.00
498;BME280;39559;48.630;9.162;2023-07-31T00:59:40;97546.75;;;10.80;100.00
498;BME280;39559;48.630;9.162;2023-07-31T01:04:12;97550.72;;;10.88;100.00
498;BME280;39559;48.630;9.162;2023-07-31T01:06:56;97552.59;;;10.85;100.00
498;BME280;39559;48.630;9.162;2023-07-31T01:09:45;97551.28;;;10.74;100.00
498;BME280;39559;48.630;9.162;2023-07-31T01:12:15;97544.28;;;10.76;100.00
498;BME280;39559;48.630;9.162;2023-07-31T01:14:51;97536.41;;;10.57;100.00
498;BME280;39559;48.630;9.162;2023-07-31T01:17:17;97538.41;;;10.51;100.00
498;BME280;39559;48.630;9.162;2023-07-31T01:19:42;97524.72;;;10.47;100.00
498;BME280;39559;48.630;9.162;2023-07-31T01:28:13;97515.44;;;10.42;100.00
498;BME280;39559;48.630;9.162;2023-07-31T01:30:44;97506.34;;;10.31;100.00
498;BME280;39559;48.630;9.162;2023-07-31T01:33:14;97511.16;;;10.41;100.00
498;BME280;39559;48.630;9.162;2023-07-31T01:35:44;97504.53;;;10.33;100.00
498;BME280;39559;48.630;9.162;2023-07-31T01:38:10;97500.97;;;10.36;100.00
498;BME280;39559;48.630;9.162;2023-07-31T01:40:35;97497.88;;;10.48;100.00
498;BME280;39559;48.630;9.162;2023-07-31T01:43:01;97501.94;;;10.33;100.00
498;BME280;39559;48.630;9.162;2023-07-31T01:45:26;97504.88;;;10.46;100.00
498;BME280;39559;48.630;9.162;2023-07-31T01:47:52;97507.41;;;10.48;100.00
498;BME280;39559;48.630;9.162;2023-07-31T01:52:06;97502.22;;;10.68;100.00
498;BME280;39559;48.630;9.162;2023-07-31T01:54:32;97500.78;;;10.61;100.00
498;BME280;39559;48.630;9.162;2023-07-31T01:56:59;97503.09;;;10.67;100.00
498;BME280;39559;48.630;9.162;2023-07-31T01:59:24;97507.09;;;10.55;100.00
498;BME280;39559;48.630;9.162;2023-07-31T02:01:50;97497.66;;;10.73;100.00
498;BME280;39559;48.630;9.162;2023-07-31T02:04:16;97498.94;;;10.84;100.00
498;BME280;39559;48.630;9.162;2023-07-31T02:06:45;97502.59;;;10.80;100.00
498;BME280;39559;48.630;9.162;2023-07-31T02:09:11;97500.44;;;10.69;100.00
498;BME280;39559;48.630;9.162;2023-07-31T02:11:37;97501.28;;;10.69;100.00
498;BME280;39559;48.630;9.162;2023-07-31T02:16:02;97498.94;;;10.84;100.00
498;BME280;39559;48.630;9.162;2023-07-31T02:18:28;97490.34;;;11.02;100.00
498;BME280;39559;48.630;9.162;2023-07-31T02:20:53;97490.38;;;10.82;100.00
498;BME280;39559;48.630;9.162;2023-07-31T02:23:19;97477.91;;;10.69;100.00
498;BME280;39559;48.630;9.162;2023-07-31T02:25:45;97475.72;;;10.60;100.00
498;BME280;39559;48.630;9.162;2023-07-31T02:28:11;97475.28;;;10.50;100.00
498;BME280;39559;48.630;9.162;2023-07-31T02:30:37;97473.31;;;10.55;100.00
498;BME280;39559;48.630;9.162;2023-07-31T02:33:03;97468.81;;;10.38;100.00
498;BME280;39559;48.630;9.162;2023-07-31T02:35:29;97466.88;;;10.44;100.00
498;BME280;39559;48.630;9.162;2023-07-31T02:40:00;97464.88;;;10.50;100.00
498;BME280;39559;48.630;9.162;2023-07-31T02:42:26;97470.91;;;10.51;100.00
498;BME280;39559;48.630;9.162;2023-07-31T02:44:51;97470.13;;;10.49;100.00
498;BME280;39559;48.630;9.162;2023-07-31T02:47:21;97469.75;;;10.37;100.00
498;BME280;39559;48.630;9.162;2023-07-31T02:49:47;97461.75;;;10.42;100.00
498;BME280;39559;48.630;9.162;2023-07-31T02:52:13;97465.94;;;10.46;100.00
498;BME280;39559;48.630;9.162;2023-07-31T02:54:38;97468.97;;;10.35;100.00
498;BME280;39559;48.630;9.162;2023-07-31T02:57:04;97456.44;;;10.45;100.00
498;BME280;39559;48.630;9.162;2023-07-31T02:59:30;97455.28;;;10.32;100.00
498;BME280;39559;48.630;9.162;2023-07-31T03:03:57;97455.13;;;10.35;100.00
498;BME280;39559;48.630;9.162;2023-07-31T03:06:23;97451.16;;;10.26;100.00
498;BME280;39559;48.630;9.162;2023-07-31T03:08:48;97448.34;;;10.32;100.00
498;BME280;39559;48.630;9.162;2023-07-31T03:11:14;97440.78;;;10.26;100.00
498;BME280;39559;48.630;9.162;2023-07-31T03:13:40;97442.97;;;10.37;100.00
498;BME280;39559;48.630;9.162;2023-07-31T03:16:05;97440.84;;;10.25;100.00
498;BME280;39559;48.630;9.162;2023-07-31T03:18:30;97447.44;;;10.33;100.00
498;BME280;39559;48.630;9.162;2023-07-31T03:20:56;97445.19;;;10.24;100.00
498;BME280;39559;48.630;9.162;2023-07-31T03:23:21;97451.00;;;10.29;100.00
498;BME280;39559;48.630;9.162;2023-07-31T03:27:55;97458.53;;;10.15;100.00
498;BME280;39559;48.630;9.162;2023-07-31T03:30:21;97445.97;;;10.26;100.00
498;BME280;39559;48.630;9.162;2023-07-31T03:32:46;97450.94;;;10.10;100.00
498;BME280;39559;48.630;9.162;2023-07-31T03:35:12;97444.47;;;10.21;100.00
498;BME280;39559;48.630;9.162;2023-07-31T03:37:37;97446.63;;;10.31;100.00
498;BME280;39559;48.630;9.162;2023-07-31T03:40:03;97445.25;;;10.23;100.00
498;BME280;39559;48.630;9.162;2023-07-31T03:42:29;97454.00;;;10.20;100.00
498;BME280;39559;48.630;9.162;2023-07-31T03:44:55;97451.09;;;10.28;100.00
498;BME280;39559;48.630;9.162;2023-07-31T03:47:20;97453.41;;;10.35;100.00
498;BME280;39559;48.630;9.162;2023-07-31T03:51:53;97455.59;;;10.24;100.00
498;BME280;39559;48.630;9.162;2023-07-31T03:54:19;97452.84;;;10.27;100.00
498;BME280;39559;48.630;9.162;2023-07-31T03:56:44;97450.94;;;10.32;100.00
498;BME280;39559;48.630;9.162;2023-07-31T03:59:10;97454.63;;;10.47;100.00
498;BME280;39559;48.630;9.162;2023-07-31T04:01:35;97454.56;;;10.49;100.00
498;BME280;39559;48.630;9.162;2023-07-31T04:04:01;97457.03;;;10.52;100.00
498;BME280;39559;48.630;9.162;2023-07-31T04:06:26;97461.44;;;10.50;100.00
498;BME280;39559;48.630;9.162;2023-07-31T04:08:52;97451.91;;;10.50;100.00
498;BME280;39559;48.630;9.162;2023-07-31T04:11:17;97456.00;;;10.56;100.00
498;BME280;39559;48.630;9.162;2023-07-31T04:15:50;97457.34;;;10.65;100.00
498;BME280;39559;48.630;9.162;2023-07-31T04:18:16;97454.94;;;10.81;100.00
498;BME280;39559;48.630;9.162;2023-07-31T04:20:42;97449.44;;;10.68;100.00
498;BME280;39559;48.630;9.162;2023-07-31T04:23:07;97451.09;;;10.69;100.00
498;BME280;39559;48.630;9.162;2023-07-31T04:25:33;97446.50;;;10.75;100.00
498;BME280;39559;48.630;9.162;2023-07-31T04:28:00;97444.03;;;10.72;100.00
498;BME280;39559;48.630;9.162;2023-07-31T04:30:26;97445.06;;;10.68;100.00
498;BME280;39559;48.630;9.162;2023-07-31T04:32:51;97428.44;;;10.72;100.00
498;BME280;39559;48.630;9.162;2023-07-31T04:35:17;97427.59;;;10.72;100.00
498;BME280;39559;48.630;9.162;2023-07-31T04:39:48;97437.72;;;10.78;100.00
498;BME280;39559;48.630;9.162;2023-07-31T04:42:13;97440.34;;;10.57;100.00
498;BME280;39559;48.630;9.162;2023-07-31T04:44:39;97433.38;;;10.58;100.00
498;BME280;39559;48.630;9.162;2023-07-31T04:47:05;97440.19;;;10.81;100.00
498;BME280;39559;48.630;9.162;2023-07-31T04:49:32;97444.19;;;10.88;100.00
498;BME280;39559;48.630;9.162;2023-07-31T04:51:57;97447.78;;;10.65;100.00
498;BME280;39559;48.630;9.162;2023-07-31T04:54:23;97454.22;;;10.77;100.00
498;BME280;39559;48.630;9.162;2023-07-31T04:56:48;97453.94;;;10.83;100.00
498;BME280;39559;48.630;9.162;2023-07-31T04:59:13;97442.53;;;11.06;100.00
498;BME280;39559;48.630;9.162;2023-07-31T05:03:46;97436.63;;;11.03;100.00
498;BME280;39559;48.630;9.162;2023-07-31T05:06:11;97441.41;;;11.31;100.00
498;BME280;39559;48.630;9.162;2023-07-31T05:08:38;97427.81;;;11.43;100.00
498;BME280;39559;48.630;9.162;2023-07-31T05:11:04;97437.41;;;11.43;100.00
498;BME280;39559;48.630;9.162;2023-07-31T05:13:29;97438.72;;;11.51;100.00
498;BME280;39559;48.630;9.162;2023-07-31T05:15:55;97435.06;;;11.73;100.00
498;BME280;39559;48.630;9.162;2023-07-31T05:18:20;97446.75;;;11.83;100.00
498;BME280;39559;48.630;9.162;2023-07-31T05:20:46;97442.88;;;11.73;100.00
498;BME280;39559;48.630;9.162;2023-07-31T05:23:11;97441.22;;;11.89;100.00
498;BME280;39559;48.630;9.162;2023-07-31T05:27:43;97439.31;;;12.12;100.00
498;BME280;39559;48.630;9.162;2023-07-31T05:30:09;97440.97;;;12.13;100.00
498;BME280;39559;48.630;9.162;2023-07-31T05:32:35;97439.06;;;12.34;100.00
498;BME280;39559;48.630;9.162;2023-07-31T05:35:00;97450.53;;;12.65;100.00
498;BME280;39559;48.630;9.162;2023-07-31T05:37:26;97440.59;;;12.89;100.00
498;BME280;39559;48.630;9.162;2023-07-31T05:39:51;97439.09;;;13.17;100.00
498;BME280;39559;48.630;9.162;2023-07-31T05:42:17;97431.50;;;13.61;100.00
498;BME280;39559;48.630;9.162;2023-07-31T05:44:42;97432.84;;;13.69;100.00
498;BME280;39559;48.630;9.162;2023-07-31T05:47:09;97423.09;;;14.02;100.00
498;BME280;39559;48.630;9.162;2023-07-31T05:51:41;97432.91;;;14.44;100.00
498;BME280;39559;48.630;9.162;2023-07-31T05:54:07;97432.69;;;14.63;100.00
498;BME280;39559;48.630;9.162;2023-07-31T05:56:32;97431.09;;;14.74;100.00
498;BME280;39559;48.630;9.162;2023-07-31T05:58:59;97421.69;;;14.86;100.00
498;BME280;39559;48.630;9.162;2023-07-31T06:01:25;97414.38;;;14.91;100.00
498;BME280;39559;48.630;9.162;2023-07-31T06:03:50;97418.50;;;15.10;100.00
498;BME280;39559;48.630;9.162;2023-07-31T06:06:15;97418.78;;;15.05;100.00
498;BME280;39559;48.630;9.162;2023-07-31T06:08:41;97426.13;;;15.13;100.00
498;BME280;39559;48.630;9.162;2023-07-31T06:11:07;97421.47;;;15.18;100.00
498;BME280;39559;48.630;9.162;2023-07-31T06:15:39;97408.19;;;15.35;100.00
498;BME280;39559;48.630;9.162;2023-07-31T06:18:05;97410.56;;;15.39;100.00
498;BME280;39559;48.630;9.162;2023-07-31T06:20:34;97420.47;;;15.48;100.00
498;BME280;39559;48.630;9.162;2023-07-31T06:23:00;97423.78;;;15.64;100.00
498;BME280;39559;48.630;9.162;2023-07-31T06:25:25;97413.31;;;15.64;100.00
498;BME280;39559;48.630;9.162;2023-07-31T06:27:51;97410.59;;;15.66;100.00
498;BME280;39559;48.630;9.162;2023-07-31T06:30:16;97415.56;;;15.70;100.00
498;BME280;39559;48.630;9.162;2023-07-31T06:32:42;97414.81;;;15.68;100.00
498;BME280;39559;48.630;9.162;2023-07-31T06:35:08;97413.22;;;15.66;100.00
498;BME280;39559;48.630;9.162;2023-07-31T06:39:37;97424.84;;;15.89;100.00
498;BME280;39559;48.630;9.162;2023-07-31T06:42:03;97415.84;;;15.93;100.00
498;BME280;39559;48.630;9.162;2023-07-31T06:44:29;97420.69;;;15.72;100.00
498;BME280;39559;48.630;9.162;2023-07-31T06:46:55;97421.53;;;16.00;100.00
498;BME280;39559;48.630;9.162;2023-07-31T06:49:20;97421.63;;;15.98;100.00
498;BME280;39559;48.630;9.162;2023-07-31T06:51:46;97418.03;;;16.14;100.00
498;BME280;39559;48.630;9.162;2023-07-31T06:54:11;97421.38;;;16.16;100.00
498;BME280;39559;48.630;9.162;2023-07-31T06:56:37;97425.38;;;16.34;100.00
498;BME280;39559;48.630;9.162;2023-07-31T06:59:03;97425.41;;;16.60;100.00
498;BME280;39559;48.630;9.162;2023-07-31T07:03:34;97430.22;;;16.66;100.00
498;BME280;39559;48.630;9.162;2023-07-31T07:06:00;97430.66;;;16.73;100.00
498;BME280;39559;48.630;9.162;2023-07-31T07:08:26;97432.53;;;16.58;100.00
498;BME280;39559;48.630;9.162;2023-07-31T07:10:51;97429.28;;;16.67;100.00
498;BME280;39559;48.630;9.162;2023-07-31T07:13:17;97427.19;;;16.72;100.00
498;BME280;39559;48.630;9.162;2023-07-31T07:15:48;97434.72;;;16.77;100.00
498;BME280;39559;48.630;9.162;2023-07-31T07:18:13;97437.47;;;16.88;100.00
498;BME280;39559;48.630;9.162;2023-07-31T07:20:39;97442.22;;;16.83;100.00
498;BME280;39559;48.630;9.162;2023-07-31T07:23:05;97428.75;;;16.75;100.00
498;BME280;39559;48.630;9.162;2023-07-31T07:27:32;97428.66;;;17.02;100.00
498;BME280;39559;48.630;9.162;2023-07-31T07:29:58;97425.19;;;16.76;100.00
498;BME280;39559;48.630;9.162;2023-07-31T07:32:24;97427.31;;;16.83;100.00
498;BME280;39559;48.630;9.162;2023-07-31T07:34:49;97418.50;;;16.84;100.00
498;BME280;39559;48.630;9.162;2023-07-31T07:37:15;97420.59;;;16.92;100.00
498;BME280;39559;48.630;9.162;2023-07-31T07:39:40;97420.78;;;17.02;100.00
498;BME280;39559;48.630;9.162;2023-07-31T07:42:06;97414.63;;;16.77;100.00
498;BME280;39559;48.630;9.162;2023-07-31T07:44:31;97409.38;;;16.90;100.00
498;BME280;39559;48.630;9.162;2023-07-31T07:46:57;97412.94;;;16.89;100.00
498;BME280;39559;48.630;9.162;2023-07-31T07:51:30;97411.75;;;17.06;100.00
498;BME280;39559;48.630;9.162;2023-07-31T07:53:57;97414.25;;;17.20;100.00
498;BME280;39559;48.630;9.162;2023-07-31T07:56:24;97415.16;;;17.45;100.00
498;BME280;39559;48.630;9.162;2023-07-31T07:58:50;97398.06;;;17.63;100.00
498;BME280;39559;48.630;9.162;2023-07-31T08:01:16;97398.66;;;17.43;100.00
498;BME280;39559;48.630;9.162;2023-07-31T08:03:41;97411.75;;;17.56;100.00
498;BME280;39559;48.630;9.162;2023-07-31T08:06:07;97406.66;;;17.65;100.00
498;BME280;39559;48.630;9.162;2023-07-31T08:08:35;97413.13;;;17.73;100.00
498;BME280;39559;48.630;9.162;2023-07-31T08:11:01;97406.78;;;17.88;100.00
498;BME280;39559;48.630;9.162;2023-07-31T08:15:27;97392.31;;;18.07;98.33
498;BME280;39559;48.630;9.162;2023-07-31T08:17:53;97392.06;;;18.10;98.33
498;BME280;39559;48.630;9.162;2023-07-31T08:20:18;97398.59;;;18.28;98.78
498;BME280;39559;48.630;9.162;2023-07-31T08:22:44;97381.66;;;18.55;95.65
498;BME280;39559;48.630;9.162;2023-07-31T08:25:09;97376.63;;;18.52;94.16
498;BME280;39559;48.630;9.162;2023-07-31T08:27:35;97383.66;;;18.29;90.79
498;BME280;39559;48.630;9.162;2023-07-31T08:30:00;97378.50;;;18.27;91.99
498;BME280;39559;48.630;9.162;2023-07-31T08:32:26;97383.13;;;18.70;91.77
498;BME280;39559;48.630;9.162;2023-07-31T08:34:51;97373.03;;;18.64;87.50
498;BME280;39559;48.630;9.162;2023-07-31T08:39:24;97379.50;;;18.71;87.83
498;BME280;39559;48.630;9.162;2023-07-31T08:41:50;97372.13;;;19.10;85.89
498;BME280;39559;48.630;9.162;2023-07-31T08:44:17;97369.34;;;19.23;84.76
498;BME280;39559;48.630;9.162;2023-07-31T08:46:43;97367.66;;;19.22;84.37
498;BME280;39559;48.630;9.162;2023-07-31T08:49:10;97360.28;;;18.82;86.12
498;BME280;39559;48.630;9.162;2023-07-31T08:51:36;97358.63;;;18.92;86.26
498;BME280;39559;48.630;9.162;2023-07-31T08:54:02;97352.75;;;19.00;89.98
498;BME280;39559;48.630;9.162;2023-07-31T08:56:32;97358.69;;;19.13;85.90
498;BME280;39559;48.630;9.162;2023-07-31T08:58:59;97357.50;;;19.29;87.21
498;BME280;39559;48.630;9.162;2023-07-31T09:03:23;97354.41;;;19.12;81.69
498;BME280;39559;48.630;9.162;2023-07-31T09:05:50;97357.13;;;19.22;83.07
498;BME280;39559;48.630;9.162;2023-07-31T09:08:20;97359.16;;;19.30;84.93
498;BME280;39559;48.630;9.162;2023-07-31T09:10:47;97346.47;;;19.35;85.03
498;BME280;39559;48.630;9.162;2023-07-31T09:13:13;97348.47;;;19.54;84.64
498;BME280;39559;48.630;9.162;2023-07-31T09:15:40;97350.31;;;19.31;80.53
498;BME280;39559;48.630;9.162;2023-07-31T09:18:06;97340.44;;;19.55;79.54
498;BME280;39559;48.630;9.162;2023-07-31T09:20:32;97340.78;;;19.51;82.48
498;BME280;39559;48.630;9.162;2023-07-31T09:23:10;97335.78;;;19.48;81.30
498;BME280;39559;48.630;9.162;2023-07-31T09:27:18;97338.06;;;20.06;83.79
498;BME280;39559;48.630;9.162;2023-07-31T09:29:44;97346.81;;;20.06;81.10
498;BME280;39559;48.630;9.162;2023-07-31T09:32:16;97351.75;;;20.42;82.47
498;BME280;39559;48.630;9.162;2023-07-31T09:34:42;97345.97;;;20.79;82.51
498;BME280;39559;48.630;9.162;2023-07-31T09:37:08;97353.47;;;20.52;75.84
498;BME280;39559;48.630;9.162;2023-07-31T09:39:46;97347.47;;;20.20;74.86
498;BME280;39559;48.630;9.162;2023-07-31T09:42:12;97342.25;;;19.87;81.05
498;BME280;39559;48.630;9.162;2023-07-31T09:44:39;97336.88;;;19.45;79.28
498;BME280;39559;48.630;9.162;2023-07-31T09:47:05;97333.81;;;19.29;81.72
498;BME280;39559;48.630;9.162;2023-07-31T09:51:15;97318.03;;;19.06;84.08
498;BME280;39559;48.630;9.162;2023-07-31T09:53:40;97310.88;;;19.08;80.66
498;BME280;39559;48.630;9.162;2023-07-31T09:56:06;97305.91;;;19.26;84.26
498;BME280;39559;48.630;9.162;2023-07-31T09:58:34;97298.31;;;19.12;82.25
498;BME280;39559;48.630;9.162;2023-07-31T10:01:01;97298.69;;;19.72;93.19
498;BME280;39559;48.630;9.162;2023-07-31T10:03:29;97290.03;;;20.02;81.12
498;BME280;39559;48.630;9.162;2023-07-31T10:05:57;97277.31;;;20.07;78.85
498;BME280;39559;48.630;9.162;2023-07-31T10:08:30;97281.13;;;20.55;85.58
498;BME280;39559;48.630;9.162;2023-07-31T10:10:59;97276.53;;;20.68;82.98
498;BME280;39559;48.630;9.162;2023-07-31T10:15:12;97260.75;;;21.07;75.77
498;BME280;39559;48.630;9.162;2023-07-31T10:17:40;97264.34;;;20.97;75.86
498;BME280;39559;48.630;9.162;2023-07-31T10:20:06;97268.97;;;21.14;78.50
498;BME280;39559;48.630;9.162;2023-07-31T10:22:33;97265.34;;;21.15;77.08
498;BME280;39559;48.630;9.162;2023-07-31T10:24:59;97264.47;;;20.95;72.69
498;BME280;39559;48.630;9.162;2023-07-31T10:27:26;97261.78;;;20.66;70.79
498;BME280;39559;48.630;9.162;2023-07-31T10:29:55;97263.91;;;20.51;71.10
498;BME280;39559;48.630;9.162;2023-07-31T10:32:23;97264.84;;;20.71;75.31
498;BME280;39559;48.630;9.162;2023-07-31T10:34:50;97256.19;;;20.59;77.61
498;BME280;39559;48.630;9.162;2023-07-31T10:39:36;97248.91;;;20.51;74.89
498;BME280;39559;48.630;9.162;2023-07-31T10:42:14;97252.09;;;20.45;72.78
498;BME280;39559;48.630;9.162;2023-07-31T10:44:49;97249.69;;;20.32;73.59
498;BME280;39559;48.630;9.162;2023-07-31T10:47:15;97248.56;;;20.35;73.87
498;BME280;39559;48.630;9.162;2023-07-31T10:49:45;97250.19;;;20.57;72.76
498;BME280;39559;48.630;9.162;2023-07-31T10:52:12;97236.72;;;20.50;70.87
498;BME280;39559;48.630;9.162;2023-07-31T10:54:38;97240.91;;;20.63;73.51
498;BME280;39559;48.630;9.162;2023-07-31T10:57:19;97243.63;;;20.51;73.73
498;BME280;39559;48.630;9.162;2023-07-31T10:59:45;97238.38;;;20.51;73.04
498;BME280;39559;48.630;9.162;2023-07-31T11:03:18;97234.44;;;20.67;77.43
498;BME280;39559;48.630;9.162;2023-07-31T11:08:24;97221.25;;;20.86;73.03
498;BME280;39559;48.630;9.162;2023-07-31T11:11:13;97228.34;;;20.86;73.32
498;BME280;39559;48.630;9.162;2023-07-31T11:13:40;97217.66;;;20.97;71.33
498;BME280;39559;48.630;9.162;2023-07-31T11:16:05;97221.56;;;20.93;71.13
498;BME280;39559;48.630;9.162;2023-07-31T11:18:31;97212.28;;;21.08;72.57
498;BME280;39559;48.630;9.162;2023-07-31T11:20:57;97220.88;;;21.30;72.44
498;BME280;39559;48.630;9.162;2023-07-31T11:23:23;97214.50;;;21.03;70.46
498;BME280;39559;48.630;9.162;2023-07-31T11:27:07;97235.34;;;21.26;71.40
498;BME280;39559;48.630;9.162;2023-07-31T11:29:33;97223.53;;;21.30;69.17
498;BME280;39559;48.630;9.162;2023-07-31T11:31:58;97223.66;;;21.38;72.16
498;BME280;39559;48.630;9.162;2023-07-31T11:34:23;97220.19;;;21.28;70.08
498;BME280;39559;48.630;9.162;2023-07-31T11:36:53;97218.53;;;21.07;70.32
498;BME280;39559;48.630;9.162;2023-07-31T11:39:20;97217.66;;;20.97;71.58
498;BME280;39559;48.630;9.162;2023-07-31T11:41:45;97219.44;;;20.77;71.60
498;BME280;39559;48.630;9.162;2023-07-31T11:44:11;97222.72;;;20.60;71.33
498;BME280;39559;48.630;9.162;2023-07-31T11:46:36;97221.44;;;20.54;72.44
498;BME280;39559;48.630;9.162;2023-07-31T11:50:59;97222.88;;;20.68;75.18
498;BME280;39559;48.630;9.162;2023-07-31T11:53:47;97220.66;;;20.63;71.72
498;BME280;39559;48.630;9.162;2023-07-31T11:56:17;97219.38;;;20.58;77.61
498;BME280;39559;48.630;9.162;2023-07-31T11:58:46;97209.78;;;20.57;77.49
498;BME280;39559;48.630;9.162;2023-07-31T12:01:14;97204.44;;;20.37;76.32
498;BME280;39559;48.630;9.162;2023-07-31T12:03:40;97199.91;;;20.49;79.62
498;BME280;39559;48.630;9.162;2023-07-31T12:06:08;97195.50;;;20.59;78.53
498;BME280;39559;48.630;9.162;2023-07-31T12:08:33;97180.41;;;20.61;78.29
498;BME280;39559;48.630;9.162;2023-07-31T12:11:04;97182.84;;;20.53;76.62
498;BME280;39559;48.630;9.162;2023-07-31T12:14:54;97171.97;;;20.37;81.76
498;BME280;39559;48.630;9.162;2023-07-31T12:17:20;97169.19;;;20.28;77.56
498;BME280;39559;48.630;9.162;2023-07-31T12:19:48;97172.59;;;20.19;77.19
498;BME280;39559;48.630;9.162;2023-07-31T12:22:15;97167.28;;;20.09;77.91
498;BME280;39559;48.630;9.162;2023-07-31T12:24:42;97167.31;;;20.19;78.37
498;BME280;39559;48.630;9.162;2023-07-31T12:27:14;97171.47;;;20.12;79.13
498;BME280;39559;48.630;9.162;2023-07-31T12:29:41;97166.91;;;20.14;79.51
498;BME280;39559;48.630;9.162;2023-07-31T12:32:24;97160.84;;;20.33;77.85
498;BME280;39559;48.630;9.162;2023-07-31T12:34:51;97160.38;;;20.08;81.40
498;BME280;39559;48.630;9.162;2023-07-31T12:38:50;97152.94;;;19.92;81.43
498;BME280;39559;48.630;9.162;2023-07-31T12:41:16;97158.44;;;20.10;79.70
498;BME280;39559;48.630;9.162;2023-07-31T12:43:44;97156.88;;;20.08;80.55
498;BME280;39559;48.630;9.162;2023-07-31T12:46:10;97144.13;;;20.13;81.74
498;BME280;39559;48.630;9.162;2023-07-31T12:48:36;97140.56;;;20.33;80.99
498;BME280;39559;48.630;9.162;2023-07-31T12:51:02;97131.16;;;20.41;80.97
498;BME280;39559;48.630;9.162;2023-07-31T12:53:28;97131.47;;;20.57;82.70
498;BME280;39559;48.630;9.162;2023-07-31T12:55:55;97114.00;;;20.66;83.90
498;BME280;39559;48.630;9.162;2023-07-31T12:58:21;97103.47;;;20.66;77.67
498;BME280;39559;48.630;9.162;2023-07-31T13:02:45;97097.34;;;20.65;77.26
498;BME280;39559;48.630;9.162;2023-07-31T13:05:10;97089.56;;;20.74;80.01
498;BME280;39559;48.630;9.162;2023-07-31T13:07:36;97093.47;;;20.79;77.33
498;BME280;39559;48.630;9.162;2023-07-31T13:10:02;97087.50;;;20.87;77.56
498;BME280;39559;48.630;9.162;2023-07-31T13:12:28;97088.63;;;20.94;79.31
498;BME280;39559;48.630;9.162;2023-07-31T13:14:53;97081.09;;;21.09;79.48
498;BME280;39559;48.630;9.162;2023-07-31T13:17:18;97089.53;;;21.22;79.68
498;BME280;39559;48.630;9.162;2023-07-31T13:19:44;97088.81;;;21.30;76.91
498;BME280;39559;48.630;9.162;2023-07-31T13:22:10;97079.22;;;21.49;80.35
498;BME280;39559;48.630;9.162;2023-07-31T13:26:41;97083.75;;;21.66;79.31
498;BME280;39559;48.630;9.162;2023-07-31T13:29:06;97072.81;;;21.41;78.33
498;BME280;39559;48.630;9.162;2023-07-31T13:31:32;97072.00;;;21.51;78.76
498;BME280;39559;48.630;9.162;2023-07-31T13:33:57;97080.75;;;21.32;80.89
498;BME280;39559;48.630;9.162;2023-07-31T13:36:23;97078.56;;;21.17;80.90
498;BME280;39559;48.630;9.162;2023-07-31T13:38:49;97070.06;;;21.33;81.39
498;BME280;39559;48.630;9.162;2023-07-31T13:41:14;97072.63;;;21.05;79.05
498;BME280;39559;48.630;9.162;2023-07-31T13:43:40;97069.44;;;20.92;79.94
498;BME280;39559;48.630;9.162;2023-07-31T13:46:06;97067.75;;;20.91;82.89
498;BME280;39559;48.630;9.162;2023-07-31T13:50:36;97071.66;;;20.97;81.81
498;BME280;39559;48.630;9.162;2023-07-31T13:53:02;97065.97;;;21.01;79.62
498;BME280;39559;48.630;9.162;2023-07-31T13:55:27;97068.56;;;21.11;81.14
498;BME280;39559;48.630;9.162;2023-07-31T13:57:53;97071.78;;;20.95;80.29
498;BME280;39559;48.630;9.162;2023-07-31T14:00:18;97070.53;;;20.89;77.61
498;BME280;39559;48.630;9.162;2023-07-31T14:02:44;97064.00;;;20.94;76.47
498;BME280;39559;48.630;9.162;2023-07-31T14:05:09;97062.75;;;20.98;71.87
498;BME280;39559;48.630;9.162;2023-07-31T14:07:35;97058.84;;;21.12;75.34
498;BME280;39559;48.630;9.162;2023-07-31T14:10:00;97063.31;;;21.01;72.86
498;BME280;39559;48.630;9.162;2023-07-31T14:14:32;97065.94;;;20.92;77.10
498;BME280;39559;48.630;9.162;2023-07-31T14:16:59;97061.19;;;21.15;73.71
498;BME280;39559;48.630;9.162;2023-07-31T14:19:24;97069.16;;;20.85;74.11
498;BME280;39559;48.630;9.162;2023-07-31T14:21:50;97060.13;;;20.78;74.96
498;BME280;39559;48.630;9.162;2023-07-31T14:24:15;97062.06;;;20.86;77.64
498;BME280;39559;48.630;9.162;2023-07-31T14:26:41;97058.59;;;21.05;77.97
498;BME280;39559;48.630;9.162;2023-07-31T14:29:06;97057.75;;;21.14;78.29